Terminal Aerodrome Forecast
Issued by NWS St Louis, MO

Home | Current Version | Previous Version | Text Only | Print | Product List | Glossary On
Versions: 1 2 3 4 5 6 7 8 9 10 11 12 13 14 15 16 17 18 19 20 21 22 23 24 25 26 27
211
FTUS43 KLSX 241136
TAFSTL
TAF
KSTL 241136Z 2412/2518 36005KT 4SM BR BKN008 OVC015
     FM241300 35009KT P6SM OVC015
     FM241700 36009G18KT P6SM BKN060
     FM242300 35009KT P6SM SCT110
     FM251500 03007KT P6SM BKN080=

USA.gov is the U.S. government's official web portal to all federal, state and local government web resources and services.